Time;durP1;ratioP1;P1;durP2;ratioP2;P2;SDS_P1;SDS_P2;PMS_P1;PMS_P2;Temp;Humidity;BMP_temperature;BMP_pressure;BME280_temperature;BME280_humidity;BME280_pressure;Samples;Min_cycle;Max_cycle;Signal;HPM_P1;HPM_P2
2023/03/15 00:02:11;;;;;;;1.00;1.00;;;17.60;63.40;;;;;;4970496;28;45656;-72
2023/03/15 00:04:40;;;;;;;1.07;1.07;;;17.60;63.50;;;;;;4981480;28;43470;-72
2023/03/15 00:07:08;;;;;;;1.03;1.03;;;17.50;63.60;;;;;;4970439;28;43538;-73
2023/03/15 00:09:36;;;;;;;1.10;1.10;;;17.50;63.80;;;;;;4969084;28;43672;-72
2023/03/15 00:12:05;;;;;;;0.90;0.90;;;17.60;63.80;;;;;;4985717;28;43824;-72
2023/03/15 00:14:34;;;;;;;1.20;1.20;;;17.70;63.50;;;;;;4968622;28;45160;-72
2023/03/15 00:17:04;;;;;;;1.10;1.10;;;17.70;63.20;;;;;;4986719;28;43358;-72
2023/03/15 00:19:32;;;;;;;1.00;1.00;;;17.70;63.00;;;;;;4969551;28;43559;-73
2023/03/15 00:22:00;;;;;;;1.10;1.10;;;17.70;63.30;;;;;;4989443;28;43939;-72
2023/03/15 00:24:28;;;;;;;1.10;1.10;;;17.60;63.40;;;;;;4989217;28;43464;-73
2023/03/15 00:26:55;;;;;;;1.00;1.00;;;17.60;63.40;;;;;;4989435;28;43503;-71
2023/03/15 00:29:23;;;;;;;1.00;1.00;;;17.60;63.30;;;;;;4983627;28;43593;-72
2023/03/15 00:31:53;;;;;;;0.90;0.90;;;17.60;63.40;;;;;;4988913;28;43939;-72
2023/03/15 00:34:25;;;;;;;0.80;0.80;;;17.60;63.50;;;;;;4968648;28;45035;-71
2023/03/15 00:36:53;;;;;;;0.90;0.90;;;17.50;63.50;;;;;;4989249;28;43733;-73
2023/03/15 00:39:24;;;;;;;0.90;0.90;;;17.50;63.70;;;;;;4989552;28;43409;-72
2023/03/15 00:41:55;;;;;;;1.03;1.03;;;17.50;63.70;;;;;;4988858;28;43895;-73
2023/03/15 00:44:25;;;;;;;1.10;1.10;;;17.50;63.60;;;;;;4971353;28;44583;-73
2023/03/15 00:46:54;;;;;;;1.40;1.40;;;17.50;63.60;;;;;;4989292;28;43464;-72
2023/03/15 00:49:22;;;;;;;1.00;1.00;;;17.50;63.70;;;;;;4971948;28;43506;-71
2023/03/15 00:51:50;;;;;;;1.20;1.20;;;17.50;63.80;;;;;;4988954;28;43927;-73
2023/03/15 00:54:18;;;;;;;1.00;1.00;;;17.40;63.70;;;;;;4971223;28;44418;-72
2023/03/15 00:56:47;;;;;;;1.00;1.00;;;17.50;64.00;;;;;;4971162;28;44094;-73
2023/03/15 00:59:15;;;;;;;0.90;0.90;;;17.60;63.70;;;;;;4989334;28;43414;-72
2023/03/15 01:01:43;;;;;;;1.20;1.20;;;17.70;63.30;;;;;;4970912;28;44805;-72
2023/03/15 01:04:13;;;;;;;1.00;1.00;;;17.70;62.90;;;;;;4971318;28;44591;-73
2023/03/15 01:06:41;;;;;;;1.00;1.00;;;17.70;62.90;;;;;;4971224;28;43398;-73
2023/03/15 01:09:09;;;;;;;1.20;1.20;;;17.70;63.00;;;;;;4971695;28;43532;-72
2023/03/15 01:11:38;;;;;;;0.90;0.90;;;17.70;63.20;;;;;;4988438;28;43689;-72
2023/03/15 01:14:07;;;;;;;1.00;1.00;;;17.70;63.10;;;;;;4971331;28;44956;-72
2023/03/15 01:16:36;;;;;;;0.90;0.90;;;17.60;63.10;;;;;;4989101;28;43379;-72
2023/03/15 01:19:04;;;;;;;0.97;0.97;;;17.60;63.20;;;;;;4975011;28;43420;-73
2023/03/15 01:21:34;;;;;;;1.07;1.07;;;17.60;63.40;;;;;;4970931;28;46528;-72
2023/03/15 01:24:02;;;;;;;1.10;1.10;;;17.50;63.40;;;;;;4971119;28;43501;-73
2023/03/15 01:26:29;;;;;;;1.10;1.10;;;17.50;63.70;;;;;;4988176;28;43374;-71
2023/03/15 01:28:57;;;;;;;1.00;1.00;;;17.50;63.50;;;;;;4971771;28;44138;-72
2023/03/15 01:31:26;;;;;;;1.20;1.20;;;17.50;63.40;;;;;;4970342;28;45774;-73
2023/03/15 01:33:54;;;;;;;0.90;0.90;;;17.50;63.50;;;;;;4988254;28;43438;-72
2023/03/15 01:36:23;;;;;;;1.10;1.10;;;17.50;63.50;;;;;;4970945;28;43422;-72
2023/03/15 01:38:53;;;;;;;1.10;1.10;;;17.50;63.70;;;;;;4971191;28;43466;-72
2023/03/15 01:41:27;;;;;;;1.03;1.03;;;17.40;63.70;;;;;;4970299;28;44066;-72
2023/03/15 01:43:55;;;;;;;1.00;1.00;;;17.50;63.70;;;;;;4970743;28;45001;-72
2023/03/15 01:46:28;;;;;;;1.00;1.00;;;17.60;63.30;;;;;;4972217;28;43430;-72
2023/03/15 01:49:11;;;;;;;1.00;1.00;;;17.70;63.00;;;;;;4964992;28;44270;-73
2023/03/15 01:51:42;;;;;;;1.10;1.10;;;17.70;62.90;;;;;;4970259;28;46042;-72
2023/03/15 01:54:14;;;;;;;1.03;1.03;;;17.70;63.00;;;;;;4970508;28;44763;-72
2023/03/15 01:56:46;;;;;;;1.20;1.20;;;17.60;63.20;;;;;;4978297;28;43458;-72
2023/03/15 01:59:15;;;;;;;1.10;1.10;;;17.60;63.90;;;;;;4971108;28;44730;-72
2023/03/15 02:01:47;;;;;;;1.00;1.00;;;17.60;63.10;;;;;;4970237;28;46064;-72
2023/03/15 02:04:17;;;;;;;1.03;1.03;;;17.60;63.20;;;;;;4987610;28;43965;-73
2023/03/15 02:06:46;;;;;;;1.10;1.10;;;17.50;63.30;;;;;;4967095;28;43478;-72
2023/03/15 02:09:16;;;;;;;1.03;1.03;;;17.50;63.40;;;;;;4970970;28;43546;-73
2023/03/15 02:11:46;;;;;;;1.00;1.00;;;17.50;63.60;;;;;;4969973;28;44158;-72
2023/03/15 02:14:16;;;;;;;1.20;1.20;;;17.50;63.60;;;;;;4972439;28;43755;-72
2023/03/15 02:16:45;;;;;;;1.10;1.10;;;17.50;63.50;;;;;;4969957;28;43533;-73
2023/03/15 02:19:24;;;;;;;1.00;1.00;;;17.50;63.50;;;;;;4970722;28;43423;-72
2023/03/15 02:21:56;;;;;;;1.07;1.07;;;17.40;63.50;;;;;;4987487;28;44356;-73
2023/03/15 02:24:31;;;;;;;1.20;1.20;;;17.50;63.70;;;;;;4987463;28;44007;-72
2023/03/15 02:26:59;;;;;;;1.10;1.10;;;17.40;63.70;;;;;;4969675;28;43781;-72
2023/03/15 02:29:28;;;;;;;0.90;0.90;;;17.40;63.70;;;;;;4970496;28;43454;-71
2023/03/15 02:31:56;;;;;;;1.00;1.00;;;17.50;63.50;;;;;;4967394;28;45823;-73
2023/03/15 02:34:27;;;;;;;1.10;1.10;;;17.60;63.00;;;;;;4970008;28;43367;-73
2023/03/15 02:36:54;;;;;;;1.20;1.20;;;17.70;62.90;;;;;;4987588;28;43449;-71
2023/03/15 02:39:23;;;;;;;1.03;1.03;;;17.60;62.90;;;;;;4970155;28;43661;-72
2023/03/15 02:41:52;;;;;;;0.97;0.97;;;17.60;63.00;;;;;;4986682;28;43689;-72
2023/03/15 02:44:23;;;;;;;1.00;1.00;;;17.60;63.20;;;;;;4986398;28;43421;-72
2023/03/15 02:46:53;;;;;;;1.40;1.40;;;17.60;63.00;;;;;;4969768;28;43470;-72
2023/03/15 02:49:24;;;;;;;1.10;1.10;;;17.60;63.20;;;;;;4970483;28;43906;-73
2023/03/15 02:51:51;;;;;;;1.10;1.10;;;17.50;63.20;;;;;;4969641;28;43625;-72
2023/03/15 02:54:19;;;;;;;1.10;1.10;;;17.50;63.30;;;;;;4986537;28;43472;-72
2023/03/15 02:56:47;;;;;;;1.10;1.10;;;17.50;63.50;;;;;;4970141;28;43517;-72
2023/03/15 02:59:16;;;;;;;1.27;1.27;;;17.40;63.50;;;;;;4966347;28;43460;-71
2023/03/15 03:01:44;;;;;;;1.00;1.00;;;17.50;63.40;;;;;;4966973;28;44765;-72
2023/03/15 03:04:14;;;;;;;1.00;1.00;;;17.40;63.40;;;;;;4966965;28;43489;-72
2023/03/15 03:06:42;;;;;;;1.10;1.10;;;17.40;63.40;;;;;;4967444;28;43864;-72
2023/03/15 03:09:12;;;;;;;1.20;1.20;;;17.40;63.50;;;;;;4966575;28;43605;-73
2023/03/15 03:11:42;;;;;;;1.20;1.20;;;17.40;63.60;;;;;;4965986;28;46639;-72
2023/03/15 03:14:12;;;;;;;1.20;1.20;;;17.40;63.70;;;;;;4965020;28;44378;-73
2023/03/15 03:16:41;;;;;;;1.37;1.37;;;17.50;63.70;;;;;;4965440;28;43434;-73
2023/03/15 03:19:11;;;;;;;1.13;1.13;;;17.60;63.30;;;;;;4967506;28;43807;-72
2023/03/15 03:21:43;;;;;;;1.23;1.23;;;17.60;62.90;;;;;;4965756;28;44700;-73
2023/03/15 03:24:15;;;;;;;1.10;1.10;;;17.60;63.10;;;;;;4965635;28;44557;-72
2023/03/15 03:26:44;;;;;;;1.13;1.13;;;17.50;63.20;;;;;;4965800;28;43404;-72
2023/03/15 03:29:15;;;;;;;1.20;1.20;;;17.50;63.30;;;;;;4965032;28;43579;-71
2023/03/15 03:31:46;;;;;;;1.00;1.00;;;17.50;63.20;;;;;;4965505;28;44729;-72
2023/03/15 03:34:14;;;;;;;1.27;1.27;;;17.50;63.20;;;;;;4964818;28;44708;-72
2023/03/15 03:36:44;;;;;;;1.00;1.00;;;17.50;63.30;;;;;;4965397;28;43961;-72
2023/03/15 03:39:15;;;;;;;1.20;1.20;;;17.50;63.40;;;;;;4966163;28;43657;-73
2023/03/15 03:41:44;;;;;;;1.20;1.20;;;17.40;63.40;;;;;;4962079;28;45725;-72
2023/03/15 03:44:13;;;;;;;1.23;1.23;;;17.40;63.60;;;;;;4968686;28;45334;-72
2023/03/15 03:46:43;;;;;;;1.10;1.10;;;17.40;63.40;;;;;;4965812;28;43391;-71
2023/03/15 03:49:13;;;;;;;1.17;1.17;;;17.40;63.40;;;;;;4965141;28;44243;-73
2023/03/15 03:51:41;;;;;;;1.20;1.20;;;17.40;63.50;;;;;;4965024;28;45526;-72
2023/03/15 03:54:10;;;;;;;1.20;1.20;;;17.40;63.50;;;;;;4964644;28;44328;-72
2023/03/15 03:56:39;;;;;;;1.20;1.20;;;17.40;63.60;;;;;;4959451;28;43798;-71
2023/03/15 03:59:07;;;;;;;1.00;1.00;;;17.40;63.70;;;;;;4965965;28;43482;-72
2023/03/15 04:01:48;;;;;;;1.30;1.30;;;17.40;64.50;;;;;;4965820;28;45565;-72
2023/03/15 04:04:15;;;;;;;1.20;1.20;;;17.50;63.40;;;;;;4964762;28;44170;-72
2023/03/15 04:06:45;;;;;;;1.07;1.07;;;17.60;62.90;;;;;;4961738;28;44095;-72
2023/03/15 04:09:18;;;;;;;1.20;1.20;;;17.60;62.80;;;;;;4965542;28;43604;-72
2023/03/15 04:11:48;;;;;;;1.33;1.33;;;17.60;62.90;;;;;;4962148;28;45471;-72
2023/03/15 04:14:17;;;;;;;1.23;1.23;;;17.50;63.00;;;;;;4966187;28;44562;-73
2023/03/15 04:16:48;;;;;;;1.10;1.10;;;17.60;63.00;;;;;;4965023;28;43441;-71
2023/03/15 04:19:18;;;;;;;1.20;1.20;;;17.50;62.90;;;;;;4965456;28;43489;-73
2023/03/15 04:21:46;;;;;;;1.17;1.17;;;17.50;63.10;;;;;;4966609;28;43686;-73
2023/03/15 04:24:44;;;;;;;1.10;1.10;;;17.50;63.20;;;;;;4948381;28;43648;-71
2023/03/15 04:27:18;;;;;;;1.30;1.30;;;17.40;63.30;;;;;;4966356;28;43394;-72
2023/03/15 04:30:14;;;;;;;1.10;1.10;;;17.40;63.50;;;;;;4966787;28;43474;-72
2023/03/15 04:32:48;;;;;;;1.27;1.27;;;17.40;63.40;;;;;;4964674;28;45059;-72
2023/03/15 04:35:22;;;;;;;1.27;1.27;;;17.40;63.40;;;;;;4963932;28;44703;-71
2023/03/15 04:38:00;;;;;;;1.10;1.10;;;17.40;63.50;;;;;;4964965;28;43393;-71
2023/03/15 04:40:50;;;;;;;1.20;1.20;;;17.40;63.50;;;;;;4926471;28;43501;-72
2023/03/15 04:43:28;;;;;;;1.40;1.30;;;17.30;63.50;;;;;;4964180;28;44186;-72
2023/03/15 04:46:12;;;;;;;1.40;1.40;;;17.40;63.80;;;;;;4963767;28;44734;-72
2023/03/15 04:48:53;;;;;;;1.10;1.10;;;17.40;63.30;;;;;;4966437;28;43468;-72
2023/03/15 04:51:32;;;;;;;1.20;1.20;;;17.50;63.00;;;;;;4964764;28;43553;-72
2023/03/15 04:54:18;;;;;;;1.30;1.30;;;17.50;63.00;;;;;;4963427;28;43494;-72
2023/03/15 04:57:03;;;;;;;1.70;1.30;;;17.50;63.10;;;;;;4961975;28;43826;-73
2023/03/15 04:59:49;;;;;;;1.20;1.20;;;17.40;63.20;;;;;;4963703;28;43506;-73
2023/03/15 05:02:38;;;;;;;1.13;1.13;;;17.40;63.10;;;;;;4960184;28;43538;-72
2023/03/15 05:05:28;;;;;;;1.20;1.20;;;17.40;63.10;;;;;;4963758;28;43961;-73
2023/03/15 05:08:08;;;;;;;1.13;1.13;;;17.40;63.20;;;;;;4961854;28;44724;-72
2023/03/15 05:11:00;;;;;;;1.30;1.30;;;17.40;63.30;;;;;;4965722;28;43427;-72
2023/03/15 05:13:47;;;;;;;1.20;1.20;;;17.40;63.40;;;;;;4969184;28;43382;-73
2023/03/15 05:16:36;;;;;;;1.27;1.27;;;17.30;64.20;;;;;;4967875;28;46053;-73
2023/03/15 05:19:22;;;;;;;1.37;1.37;;;17.40;63.30;;;;;;4964964;28;44046;-72
2023/03/15 05:22:02;;;;;;;1.30;1.30;;;17.50;63.00;;;;;;4967816;28;43543;-72
2023/03/15 05:24:59;;;;;;;1.27;1.27;;;17.60;62.70;;;;;;4905454;28;43859;-72
2023/03/15 05:27:46;;;;;;;1.40;1.40;;;17.50;62.70;;;;;;4967269;28;43514;-72
2023/03/15 05:30:46;;;;;;;1.30;1.30;;;17.50;62.90;;;;;;4964906;28;43853;-72
2023/03/15 05:33:27;;;;;;;1.20;1.20;;;17.50;63.10;;;;;;4967232;28;43453;-72
2023/03/15 05:36:13;;;;;;;1.20;1.20;;;17.50;62.90;;;;;;4968060;28;43605;-72
2023/03/15 05:39:04;;;;;;;1.37;1.37;;;17.40;63.10;;;;;;4922648;28;43579;-71
2023/03/15 05:41:51;;;;;;;1.10;1.10;;;17.40;63.20;;;;;;4966303;28;45017;-72
2023/03/15 05:44:38;;;;;;;1.30;1.30;;;17.40;63.30;;;;;;4968209;28;43580;-71
2023/03/15 05:47:39;;;;;;;1.20;1.20;;;17.40;63.50;;;;;;4959199;28;44231;-73
2023/03/15 05:50:27;;;;;;;1.17;1.17;;;17.40;63.20;;;;;;4964545;28;45898;-72
2023/03/15 05:53:04;;;;;;;1.30;1.30;;;17.30;63.20;;;;;;4967344;28;44797;-72
2023/03/15 05:55:45;;;;;;;1.30;1.30;;;17.30;63.40;;;;;;4973375;28;43451;-71
2023/03/15 05:58:32;;;;;;;1.20;1.20;;;17.30;63.50;;;;;;4982426;28;43456;-71
2023/03/15 06:01:38;;;;;;;1.30;1.30;;;17.30;63.60;;;;;;4889001;29;43766;-72
2023/03/15 06:04:18;;;;;;;1.23;1.23;;;17.30;63.30;;;;;;4877601;29;43888;-73
2023/03/15 06:06:46;;;;;;;1.27;1.27;;;17.30;63.40;;;;;;4936094;28;43495;-73
2023/03/15 06:09:14;;;;;;;1.10;1.10;;;17.30;63.50;;;;;;4970662;28;43415;-73
2023/03/15 06:11:44;;;;;;;1.30;1.30;;;17.30;63.50;;;;;;4970417;28;43782;-71
2023/03/15 06:14:13;;;;;;;1.20;1.20;;;17.30;63.60;;;;;;4970392;28;44835;-73
2023/03/15 06:16:48;;;;;;;1.20;1.20;;;17.20;63.60;;;;;;4971771;28;44082;-72
2023/03/15 06:19:18;;;;;;;1.30;1.30;;;17.30;63.70;;;;;;4970522;28;44250;-73
2023/03/15 06:21:46;;;;;;;1.27;1.27;;;17.40;63.30;;;;;;4969751;28;45581;-73
2023/03/15 06:24:25;;;;;;;1.30;1.30;;;17.50;62.90;;;;;;4976090;28;44912;-73
2023/03/15 06:26:55;;;;;;;1.40;1.40;;;17.60;62.50;;;;;;4970650;28;43485;-73
2023/03/15 06:29:23;;;;;;;1.40;1.40;;;17.50;62.50;;;;;;4970387;28;43645;-73
2023/03/15 06:31:54;;;;;;;1.30;1.30;;;17.50;62.70;;;;;;4982442;28;45970;-73
2023/03/15 06:34:25;;;;;;;1.40;1.40;;;17.50;62.80;;;;;;4963973;28;44408;-72
2023/03/15 06:36:54;;;;;;;1.23;1.23;;;17.50;62.60;;;;;;4969761;28;43331;-72
2023/03/15 06:39:22;;;;;;;1.30;1.30;;;17.50;62.90;;;;;;4970733;28;43426;-73
2023/03/15 06:41:52;;;;;;;1.40;1.40;;;17.50;62.90;;;;;;4969522;28;43977;-72
2023/03/15 06:44:22;;;;;;;1.40;1.40;;;17.40;63.00;;;;;;4969925;28;43469;-72
2023/03/15 06:46:55;;;;;;;1.30;1.30;;;17.40;63.20;;;;;;4969919;28;43506;-74
2023/03/15 06:49:25;;;;;;;1.40;1.40;;;17.40;63.30;;;;;;4969944;28;43442;-72
2023/03/15 06:51:53;;;;;;;1.40;1.40;;;17.40;63.10;;;;;;4969555;28;45745;-72
2023/03/15 06:54:22;;;;;;;1.40;1.40;;;17.40;63.20;;;;;;4973724;28;45016;-72
2023/03/15 06:56:50;;;;;;;1.50;1.50;;;17.40;63.30;;;;;;4969457;28;43467;-72
2023/03/15 06:59:18;;;;;;;1.40;1.40;;;17.30;63.00;;;;;;4987600;28;43545;-72
2023/03/15 07:01:46;;;;;;;1.67;1.67;;;17.30;63.00;;;;;;4968901;28;45723;-72
2023/03/15 07:04:14;;;;;;;1.40;1.40;;;17.30;63.40;;;;;;4987383;28;43458;-72
2023/03/15 07:06:43;;;;;;;1.30;1.30;;;17.30;63.10;;;;;;4984430;28;43404;-72
2023/03/15 07:09:11;;;;;;;1.30;1.30;;;17.30;63.20;;;;;;4967840;28;44042;-72
2023/03/15 07:11:39;;;;;;;1.47;1.47;;;17.30;63.20;;;;;;4986794;28;43963;-73
2023/03/15 07:14:07;;;;;;;1.57;1.57;;;17.30;63.30;;;;;;4987191;28;43426;-72
2023/03/15 07:16:35;;;;;;;1.60;1.60;;;17.30;63.40;;;;;;4969790;28;43403;-72
2023/03/15 07:19:03;;;;;;;1.50;1.50;;;17.20;63.40;;;;;;4969857;28;43967;-72
2023/03/15 07:21:31;;;;;;;1.30;1.30;;;17.30;63.40;;;;;;4986586;28;43580;-71
2023/03/15 07:24:00;;;;;;;1.40;1.40;;;17.40;63.10;;;;;;4969317;28;44858;-72
2023/03/15 07:26:28;;;;;;;1.70;1.50;;;17.50;62.70;;;;;;4986437;28;43512;-72
2023/03/15 07:28:56;;;;;;;1.40;1.40;;;17.60;62.40;;;;;;4986865;28;43572;-72
2023/03/15 07:31:24;;;;;;;1.50;1.50;;;17.50;62.40;;;;;;4988073;28;43964;-73
2023/03/15 07:33:52;;;;;;;1.57;1.57;;;17.50;62.70;;;;;;4988379;28;43476;-71
2023/03/15 07:36:21;;;;;;;1.23;1.23;;;17.50;62.70;;;;;;4977565;28;43413;-71
2023/03/15 07:38:49;;;;;;;1.60;1.60;;;17.50;62.70;;;;;;4968337;28;43829;-73
2023/03/15 07:41:18;;;;;;;1.40;1.40;;;17.50;62.90;;;;;;4985664;28;44111;-72
2023/03/15 07:43:56;;;;;;;1.50;1.50;;;17.40;62.90;;;;;;4969495;28;44409;-72
2023/03/15 07:46:25;;;;;;;1.50;1.50;;;17.30;63.00;;;;;;4969975;28;43472;-72
2023/03/15 07:48:53;;;;;;;1.30;1.30;;;17.30;63.20;;;;;;4984345;28;43465;-74
2023/03/15 07:51:21;;;;;;;1.60;1.60;;;17.30;63.00;;;;;;4988392;28;43776;-72
2023/03/15 07:53:49;;;;;;;1.40;1.40;;;17.40;63.20;;;;;;4971411;28;45125;-72
2023/03/15 07:56:18;;;;;;;1.50;1.50;;;17.30;63.20;;;;;;4987702;28;43458;-72
2023/03/15 07:58:46;;;;;;;1.60;1.60;;;17.30;63.20;;;;;;4983489;28;43431;-72
2023/03/15 08:01:14;;;;;;;1.50;1.50;;;17.30;63.30;;;;;;4982149;28;43887;-72
2023/03/15 08:03:42;;;;;;;1.50;1.50;;;17.30;63.40;;;;;;4967852;28;45151;-72
2023/03/15 08:06:10;;;;;;;1.60;1.60;;;17.30;63.40;;;;;;4985799;28;43484;-72
2023/03/15 08:08:39;;;;;;;1.50;1.50;;;17.30;63.30;;;;;;4986735;28;43490;-72
2023/03/15 08:11:07;;;;;;;1.40;1.40;;;17.20;63.20;;;;;;4986648;28;43758;-73
2023/03/15 08:13:36;;;;;;;1.53;1.53;;;17.20;63.30;;;;;;4986232;28;43422;-72
2023/03/15 08:16:04;;;;;;;1.67;1.67;;;17.20;64.00;;;;;;4986223;28;43948;-72
2023/03/15 08:18:32;;;;;;;1.50;1.50;;;17.30;63.50;;;;;;4987001;28;43594;-72
2023/03/15 08:21:00;;;;;;;1.67;1.67;;;17.20;63.50;;;;;;4986029;28;43668;-73
2023/03/15 08:23:28;;;;;;;2.73;1.77;;;17.30;62.90;;;;;;4986063;28;43769;-72
2023/03/15 08:25:56;;;;;;;1.90;1.80;;;17.40;61.80;;;;;;4986085;28;43409;-73
2023/03/15 08:28:24;;;;;;;1.77;1.77;;;17.50;62.00;;;;;;4968894;28;44026;-72
2023/03/15 08:30:53;;;;;;;1.63;1.57;;;17.50;62.20;;;;;;4985673;28;43954;-71
2023/03/15 08:33:22;;;;;;;1.70;1.60;;;17.40;62.30;;;;;;4985416;28;44292;-72
2023/03/15 08:35:52;;;;;;;1.67;1.67;;;17.40;62.70;;;;;;4968044;28;43466;-73
2023/03/15 08:38:20;;;;;;;1.73;1.63;;;17.40;62.60;;;;;;4986198;28;43387;-72
2023/03/15 08:40:48;;;;;;;1.30;1.30;;;17.40;62.60;;;;;;4986598;28;43884;-73
2023/03/15 08:43:16;;;;;;;1.60;1.60;;;17.40;62.70;;;;;;4970724;28;44654;-73
2023/03/15 08:45:44;;;;;;;1.47;1.47;;;17.30;62.70;;;;;;4989473;28;43359;-72
2023/03/15 08:48:30;;;;;;;1.60;1.50;;;17.30;62.90;;;;;;4984728;28;43405;-72
2023/03/15 08:51:02;;;;;;;1.57;1.57;;;17.30;63.20;;;;;;4989269;28;43614;-72
2023/03/15 08:53:30;;;;;;;2.17;1.80;;;17.30;63.10;;;;;;4989097;28;43374;-73
2023/03/15 08:55:58;;;;;;;1.57;1.57;;;17.30;63.00;;;;;;4971453;28;43448;-71
2023/03/15 08:58:26;;;;;;;1.57;1.47;;;17.30;64.00;;;;;;4989589;28;43518;-72
2023/03/15 09:00:56;;;;;;;1.53;1.47;;;17.20;63.10;;;;;;4980904;28;45005;-73
2023/03/15 09:03:24;;;;;;;1.47;1.47;;;17.20;63.20;;;;;;4989042;28;43409;-73
2023/03/15 09:05:57;;;;;;;1.70;1.70;;;17.20;63.30;;;;;;4988013;28;43482;-72
2023/03/15 09:08:32;;;;;;;1.60;1.60;;;17.20;63.50;;;;;;4987970;28;43602;-72
2023/03/15 09:11:00;;;;;;;1.57;1.40;;;17.30;63.40;;;;;;4988871;28;43750;-72
2023/03/15 09:13:28;;;;;;;1.60;1.60;;;17.40;62.90;;;;;;4988907;28;43537;-73
2023/03/15 09:15:56;;;;;;;1.50;1.50;;;17.40;62.60;;;;;;4989148;28;43346;-72
2023/03/15 09:18:24;;;;;;;1.53;1.53;;;17.40;62.70;;;;;;4989264;28;43397;-72
2023/03/15 09:20:52;;;;;;;1.60;1.50;;;17.40;63.00;;;;;;4971260;28;45332;-72
2023/03/15 09:23:22;;;;;;;1.60;1.60;;;17.40;63.20;;;;;;4984915;28;43401;-72
2023/03/15 09:25:50;;;;;;;1.60;1.60;;;17.30;63.00;;;;;;4988834;28;43991;-72
2023/03/15 09:28:18;;;;;;;1.40;1.40;;;17.30;63.10;;;;;;4993169;28;43909;-73
2023/03/15 09:30:46;;;;;;;1.73;1.70;;;17.30;63.30;;;;;;4978736;28;45692;-72
2023/03/15 09:33:14;;;;;;;1.50;1.50;;;17.20;63.40;;;;;;4976606;28;44723;-70
2023/03/15 09:35:42;;;;;;;1.53;1.53;;;17.30;63.60;;;;;;4999887;28;44033;-71
2023/03/15 09:38:10;;;;;;;1.50;1.50;;;17.20;63.80;;;;;;4989499;28;43389;-72
2023/03/15 09:40:41;;;;;;;1.50;1.50;;;17.20;63.60;;;;;;4988446;28;43907;-73
2023/03/15 09:43:22;;;;;;;1.20;1.20;;;17.20;63.50;;;;;;4970995;28;45138;-72
2023/03/15 09:45:57;;;;;;;1.57;1.57;;;17.20;63.70;;;;;;4982346;28;43403;-71
2023/03/15 09:48:31;;;;;;;2.07;1.97;;;17.20;63.80;;;;;;4996530;28;43449;-72
2023/03/15 09:51:00;;;;;;;1.63;1.63;;;17.20;63.80;;;;;;4970492;28;45634;-73
2023/03/15 09:53:30;;;;;;;1.73;1.63;;;17.20;64.20;;;;;;4987982;28;43466;-72
2023/03/15 09:56:00;;;;;;;2.23;1.70;;;17.30;64.30;;;;;;4970064;28;43523;-72
2023/03/15 09:58:31;;;;;;;1.50;1.40;;;17.30;63.90;;;;;;4971703;28;44328;-72
2023/03/15 10:01:00;;;;;;;1.60;1.60;;;17.40;64.30;;;;;;4973707;28;45649;-72
2023/03/15 10:03:30;;;;;;;1.33;1.33;;;17.40;63.20;;;;;;4966190;28;44840;-72
2023/03/15 10:06:00;;;;;;;1.53;1.50;;;17.40;63.40;;;;;;4968874;28;43861;-72
2023/03/15 10:08:28;;;;;;;1.70;1.70;;;17.40;63.60;;;;;;4992765;28;43587;-72
2023/03/15 10:11:02;;;;;;;2.00;1.63;;;17.40;63.70;;;;;;4979447;28;46405;-71
2023/03/15 10:13:43;;;;;;;1.60;1.60;;;17.40;63.70;;;;;;4993129;28;43411;-72
2023/03/15 10:16:18;;;;;;;1.37;1.37;;;17.30;63.70;;;;;;4995261;28;43563;-71
2023/03/15 10:18:53;;;;;;;1.53;1.43;;;17.30;63.80;;;;;;4991848;28;43506;-71
2023/03/15 10:21:28;;;;;;;1.40;1.40;;;17.30;63.90;;;;;;4989606;28;44869;-72
2023/03/15 10:23:56;;;;;;;1.90;1.77;;;17.20;64.00;;;;;;4966719;28;45114;-72
2023/03/15 10:26:25;;;;;;;1.67;1.67;;;17.20;64.20;;;;;;4987982;28;43399;-71
2023/03/15 10:28:55;;;;;;;1.50;1.50;;;17.20;64.10;;;;;;4970531;28;43601;-72
2023/03/15 10:31:25;;;;;;;1.50;1.50;;;17.20;64.20;;;;;;4987488;28;44165;-72
2023/03/15 10:34:10;;;;;;;1.40;1.40;;;17.20;64.20;;;;;;4987561;28;43481;-72
2023/03/15 10:36:38;;;;;;;1.50;1.50;;;17.20;64.20;;;;;;4987683;28;43987;-73
2023/03/15 10:39:06;;;;;;;1.70;1.60;;;17.20;64.40;;;;;;4986395;28;44070;-72
2023/03/15 10:41:37;;;;;;;1.90;1.80;;;17.20;64.60;;;;;;4987303;28;43836;-73
2023/03/15 10:44:08;;;;;;;1.80;1.80;;;17.30;64.60;;;;;;4970185;28;45173;-72
2023/03/15 10:46:36;;;;;;;1.67;1.67;;;17.30;64.00;;;;;;4987774;28;43496;-72
2023/03/15 10:49:10;;;;;;;1.60;1.60;;;17.40;63.70;;;;;;4970257;28;43550;-72
2023/03/15 10:51:42;;;;;;;1.53;1.50;;;17.40;63.70;;;;;;4987517;28;43684;-72
2023/03/15 10:54:15;;;;;;;1.30;1.30;;;17.30;63.60;;;;;;4987260;28;43399;-72
2023/03/15 10:56:45;;;;;;;1.43;1.43;;;17.30;63.80;;;;;;4962874;28;43586;-73
2023/03/15 10:59:19;;;;;;;1.40;1.40;;;17.30;63.90;;;;;;4968653;28;43408;-73
2023/03/15 11:01:48;;;;;;;1.60;1.60;;;17.30;63.60;;;;;;4966039;28;45978;-71
2023/03/15 11:04:18;;;;;;;1.73;1.73;;;17.30;63.80;;;;;;4965256;28;45014;-72
2023/03/15 11:06:48;;;;;;;1.37;1.37;;;17.30;63.90;;;;;;4967504;28;43432;-72
2023/03/15 11:09:17;;;;;;;1.80;1.70;;;17.30;64.10;;;;;;4963507;28;43480;-72
2023/03/15 11:11:57;;;;;;;3.30;1.70;;;17.20;64.00;;;;;;4967461;28;45524;-73
2023/03/15 11:14:27;;;;;;;1.70;1.70;;;17.20;63.50;;;;;;4967174;28;43523;-72
2023/03/15 11:16:56;;;;;;;1.67;1.60;;;17.20;63.60;;;;;;4967698;28;43449;-72
2023/03/15 11:19:26;;;;;;;1.80;1.70;;;17.20;63.70;;;;;;4964148;28;43716;-71
2023/03/15 11:21:54;;;;;;;1.90;1.80;;;17.20;63.70;;;;;;4966393;28;43863;-72
2023/03/15 11:24:25;;;;;;;1.60;1.60;;;17.20;63.80;;;;;;4967325;28;43376;-71
2023/03/15 11:26:53;;;;;;;4.53;2.60;;;17.20;64.00;;;;;;4967627;28;43397;-71
2023/03/15 11:29:23;;;;;;;3.13;1.73;;;17.20;64.40;;;;;;4966229;28;43490;-72
2023/03/15 11:31:52;;;;;;;5.03;1.70;;;17.30;64.30;;;;;;4964896;28;45398;-72
2023/03/15 11:34:37;;;;;;;1.60;1.60;;;17.40;63.90;;;;;;4964841;28;44480;-73
2023/03/15 11:37:10;;;;;;;1.80;1.80;;;17.40;63.40;;;;;;4970285;28;43452;-71
2023/03/15 11:39:44;;;;;;;1.70;1.60;;;17.40;63.30;;;;;;4970825;28;44241;-72
2023/03/15 11:42:14;;;;;;;1.70;1.60;;;17.40;63.50;;;;;;4972936;28;43828;-71
2023/03/15 11:44:45;;;;;;;1.70;1.40;;;17.40;64.00;;;;;;4975304;28;43489;-72
2023/03/15 11:47:16;;;;;;;1.50;1.50;;;17.40;63.70;;;;;;4968473;28;44049;-72
2023/03/15 11:49:47;;;;;;;1.70;1.60;;;17.30;63.70;;;;;;4967521;28;43918;-71
2023/03/15 11:52:15;;;;;;;1.80;1.70;;;17.30;63.80;;;;;;4967017;28;43907;-72
2023/03/15 11:54:44;;;;;;;1.60;1.60;;;17.30;64.10;;;;;;4966367;28;43643;-72
2023/03/15 11:57:40;;;;;;;1.57;1.57;;;17.30;64.20;;;;;;4966715;28;43481;-73
2023/03/15 12:00:50;;;;;;;1.70;1.60;;;17.20;64.40;;;;;;4961106;28;43597;-72
2023/03/15 12:03:32;;;;;;;1.50;1.50;;;17.20;64.20;;;;;;4931508;28;43850;-73
2023/03/15 12:06:05;;;;;;;1.40;1.40;;;17.30;64.40;;;;;;4926253;28;43507;-71
2023/03/15 12:08:44;;;;;;;1.50;1.50;;;17.20;64.40;;;;;;4959039;28;44133;-72
2023/03/15 12:11:12;;;;;;;1.80;1.67;;;17.20;64.40;;;;;;4972145;28;44125;-71
2023/03/15 12:13:51;;;;;;;1.77;1.67;;;17.20;64.70;;;;;;4969551;28;46137;-72
2023/03/15 12:16:21;;;;;;;1.50;1.50;;;17.20;65.40;;;;;;4970605;28;43493;-73
2023/03/15 12:18:50;;;;;;;1.67;1.57;;;17.20;64.40;;;;;;4973844;28;43818;-72
2023/03/15 12:21:21;;;;;;;1.50;1.50;;;17.20;64.50;;;;;;4975615;28;43405;-73
2023/03/15 12:23:56;;;;;;;1.60;1.60;;;17.20;64.50;;;;;;4971209;28;45980;-72
2023/03/15 12:26:38;;;;;;;1.50;1.50;;;17.20;64.60;;;;;;4970612;28;44821;-72
2023/03/15 12:29:11;;;;;;;1.40;1.40;;;17.20;64.70;;;;;;4975934;28;43430;-72
2023/03/15 12:31:49;;;;;;;1.63;1.40;;;17.20;65.10;;;;;;4975354;28;43437;-71
2023/03/15 12:34:28;;;;;;;1.67;1.57;;;17.20;64.90;;;;;;4968137;28;45367;-72
2023/03/15 12:36:58;;;;;;;1.60;1.60;;;17.40;64.60;;;;;;4978844;28;43420;-72
2023/03/15 12:39:37;;;;;;;1.43;1.43;;;17.40;64.10;;;;;;4975405;28;43725;-72
2023/03/15 12:42:05;;;;;;;1.67;1.57;;;17.40;63.90;;;;;;4973218;28;43840;-71
2023/03/15 12:44:40;;;;;;;1.50;1.50;;;17.40;64.80;;;;;;4974320;28;46329;-72
2023/03/15 12:47:09;;;;;;;1.70;1.70;;;17.40;64.40;;;;;;4972737;28;43554;-72
2023/03/15 12:49:41;;;;;;;1.50;1.50;;;17.40;64.30;;;;;;4968727;28;43892;-71
2023/03/15 12:52:28;;;;;;;1.40;1.40;;;17.40;64.30;;;;;;4969425;28;43776;-72
2023/03/15 12:55:00;;;;;;;1.80;1.80;;;17.30;64.30;;;;;;4969855;28;44337;-71
2023/03/15 12:57:28;;;;;;;1.40;1.40;;;17.30;64.30;;;;;;4995531;28;43497;-72
2023/03/15 13:00:05;;;;;;;1.83;1.73;;;17.30;64.70;;;;;;4994124;28;43971;-72
2023/03/15 13:02:34;;;;;;;1.50;1.50;;;17.30;64.80;;;;;;4997441;28;43383;-71
2023/03/15 13:05:23;;;;;;;1.30;1.30;;;17.30;64.50;;;;;;4988919;28;43856;-72
2023/03/15 13:07:56;;;;;;;1.57;1.57;;;17.30;64.50;;;;;;4986684;28;43350;-71
2023/03/15 13:10:36;;;;;;;1.40;1.40;;;17.20;64.30;;;;;;4988933;28;43426;-72
2023/03/15 13:13:13;;;;;;;1.50;1.50;;;17.20;64.30;;;;;;4989396;28;44538;-72
2023/03/15 13:15:42;;;;;;;1.47;1.37;;;17.20;64.40;;;;;;4988524;28;43791;-71